sensor_id;sensor_type;location;lat;lon;timestamp;P1;durP1;ratioP1;P2;durP2;ratioP2
24229;SDS011;12362;50.004;8.006;2022-10-31T00:01:44;0.52;;;0.38;;
24229;SDS011;12362;50.004;8.006;2022-10-31T00:04:10;1.23;;;0.55;;
24229;SDS011;12362;50.004;8.006;2022-10-31T00:06:35;4.68;;;0.40;;
24229;SDS011;12362;50.004;8.006;2022-10-31T00:09:02;0.17;;;0.17;;
24229;SDS011;12362;50.004;8.006;2022-10-31T00:11:29;0.65;;;0.52;;
24229;SDS011;12362;50.004;8.006;2022-10-31T00:13:54;3.67;;;0.50;;
24229;SDS011;12362;50.004;8.006;2022-10-31T00:16:23;0.20;;;0.20;;
24229;SDS011;12362;50.004;8.006;2022-10-31T00:18:50;0.20;;;0.20;;
24229;SDS011;12362;50.004;8.006;2022-10-31T00:21:26;0.22;;;0.20;;
24229;SDS011;12362;50.004;8.006;2022-10-31T00:23:52;1.35;;;0.65;;
24229;SDS011;12362;50.004;8.006;2022-10-31T00:26:18;0.65;;;0.40;;
24229;SDS011;12362;50.004;8.006;2022-10-31T00:28:43;0.10;;;0.10;;
24229;SDS011;12362;50.004;8.006;2022-10-31T00:31:10;0.75;;;0.30;;
24229;SDS011;12362;50.004;8.006;2022-10-31T00:33:37;0.50;;;0.30;;
24229;SDS011;12362;50.004;8.006;2022-10-31T00:36:04;0.20;;;0.20;;
24229;SDS011;12362;50.004;8.006;2022-10-31T00:38:30;0.43;;;0.43;;
24229;SDS011;12362;50.004;8.006;2022-10-31T00:40:56;1.92;;;1.25;;
24229;SDS011;12362;50.004;8.006;2022-10-31T00:43:21;7.13;;;0.50;;
24229;SDS011;12362;50.004;8.006;2022-10-31T00:45:47;0.75;;;0.40;;
24229;SDS011;12362;50.004;8.006;2022-10-31T00:48:12;0.57;;;0.30;;
24229;SDS011;12362;50.004;8.006;2022-10-31T00:50:38;0.50;;;0.20;;
24229;SDS011;12362;50.004;8.006;2022-10-31T00:53:04;0.63;;;0.20;;
24229;SDS011;12362;50.004;8.006;2022-10-31T00:55:29;1.25;;;0.30;;
24229;SDS011;12362;50.004;8.006;2022-10-31T00:57:55;2.17;;;0.75;;
24229;SDS011;12362;50.004;8.006;2022-10-31T01:00:20;1.02;;;0.70;;
24229;SDS011;12362;50.004;8.006;2022-10-31T01:02:46;0.10;;;0.10;;
24229;SDS011;12362;50.004;8.006;2022-10-31T01:05:12;0.30;;;0.30;;
24229;SDS011;12362;50.004;8.006;2022-10-31T01:07:38;0.30;;;0.30;;
24229;SDS011;12362;50.004;8.006;2022-10-31T01:10:05;0.40;;;0.30;;
24229;SDS011;12362;50.004;8.006;2022-10-31T01:12:42;1.05;;;0.30;;
24229;SDS011;12362;50.004;8.006;2022-10-31T01:15:09;1.30;;;0.60;;
24229;SDS011;12362;50.004;8.006;2022-10-31T01:17:36;1.02;;;0.55;;
24229;SDS011;12362;50.004;8.006;2022-10-31T01:20:02;0.98;;;0.60;;
24229;SDS011;12362;50.004;8.006;2022-10-31T01:22:29;0.50;;;0.40;;
24229;SDS011;12362;50.004;8.006;2022-10-31T01:24:54;1.05;;;0.50;;
24229;SDS011;12362;50.004;8.006;2022-10-31T01:27:19;0.47;;;0.47;;
24229;SDS011;12362;50.004;8.006;2022-10-31T01:29:45;0.22;;;0.22;;
24229;SDS011;12362;50.004;8.006;2022-10-31T01:32:10;0.28;;;0.28;;
24229;SDS011;12362;50.004;8.006;2022-10-31T01:34:36;0.40;;;0.30;;
24229;SDS011;12362;50.004;8.006;2022-10-31T01:37:01;0.43;;;0.32;;
24229;SDS011;12362;50.004;8.006;2022-10-31T01:39:26;2.20;;;0.98;;
24229;SDS011;12362;50.004;8.006;2022-10-31T01:41:52;1.95;;;0.50;;
24229;SDS011;12362;50.004;8.006;2022-10-31T01:47:13;0.38;;;0.38;;
24229;SDS011;12362;50.004;8.006;2022-10-31T01:49:46;0.95;;;0.50;;
24229;SDS011;12362;50.004;8.006;2022-10-31T01:55:09;0.50;;;0.30;;
24229;SDS011;12362;50.004;8.006;2022-10-31T01:57:41;0.88;;;0.52;;
24229;SDS011;12362;50.004;8.006;2022-10-31T02:00:10;0.90;;;0.65;;
24229;SDS011;12362;50.004;8.006;2022-10-31T02:02:37;2.33;;;0.55;;
24229;SDS011;12362;50.004;8.006;2022-10-31T02:05:04;0.38;;;0.38;;
24229;SDS011;12362;50.004;8.006;2022-10-31T02:07:43;0.20;;;0.20;;
24229;SDS011;12362;50.004;8.006;2022-10-31T02:10:16;3.00;;;0.90;;
24229;SDS011;12362;50.004;8.006;2022-10-31T02:12:42;0.40;;;0.40;;
24229;SDS011;12362;50.004;8.006;2022-10-31T02:15:09;6.63;;;0.52;;
24229;SDS011;12362;50.004;8.006;2022-10-31T02:17:34;1.08;;;0.40;;
24229;SDS011;12362;50.004;8.006;2022-10-31T02:20:16;1.52;;;0.28;;
24229;SDS011;12362;50.004;8.006;2022-10-31T02:33:50;0.90;;;0.20;;
24229;SDS011;12362;50.004;8.006;2022-10-31T02:44:40;0.15;;;0.15;;
24229;SDS011;12362;50.004;8.006;2022-10-31T02:47:16;1.45;;;0.40;;
24229;SDS011;12362;50.004;8.006;2022-10-31T02:52:26;0.77;;;0.40;;
24229;SDS011;12362;50.004;8.006;2022-10-31T02:54:53;0.20;;;0.20;;
24229;SDS011;12362;50.004;8.006;2022-10-31T02:57:29;0.55;;;0.30;;
24229;SDS011;12362;50.004;8.006;2022-10-31T02:59:59;0.25;;;0.25;;
24229;SDS011;12362;50.004;8.006;2022-10-31T03:02:32;0.57;;;0.47;;
24229;SDS011;12362;50.004;8.006;2022-10-31T03:11:07;0.20;;;0.20;;
24229;SDS011;12362;50.004;8.006;2022-10-31T03:16:46;0.45;;;0.40;;
24229;SDS011;12362;50.004;8.006;2022-10-31T03:19:18;0.20;;;0.20;;
24229;SDS011;12362;50.004;8.006;2022-10-31T03:21:55;0.40;;;0.40;;
24229;SDS011;12362;50.004;8.006;2022-10-31T03:24:32;0.32;;;0.32;;
24229;SDS011;12362;50.004;8.006;2022-10-31T03:27:02;0.47;;;0.40;;
24229;SDS011;12362;50.004;8.006;2022-10-31T03:29:33;2.08;;;0.73;;
24229;SDS011;12362;50.004;8.006;2022-10-31T03:34:33;0.10;;;0.10;;
24229;SDS011;12362;50.004;8.006;2022-10-31T03:37:03;0.30;;;0.30;;
24229;SDS011;12362;50.004;8.006;2022-10-31T03:39:31;0.35;;;0.32;;
24229;SDS011;12362;50.004;8.006;2022-10-31T03:42:03;3.13;;;0.40;;
24229;SDS011;12362;50.004;8.006;2022-10-31T03:44:32;1.40;;;0.30;;
24229;SDS011;12362;50.004;8.006;2022-10-31T03:47:00;0.30;;;0.22;;
24229;SDS011;12362;50.004;8.006;2022-10-31T03:49:27;0.38;;;0.38;;
24229;SDS011;12362;50.004;8.006;2022-10-31T03:54:44;0.25;;;0.20;;
24229;SDS011;12362;50.004;8.006;2022-10-31T04:00:10;0.63;;;0.52;;
24229;SDS011;12362;50.004;8.006;2022-10-31T04:02:38;0.63;;;0.38;;
24229;SDS011;12362;50.004;8.006;2022-10-31T04:05:07;0.68;;;0.40;;
24229;SDS011;12362;50.004;8.006;2022-10-31T04:07:37;2.03;;;0.73;;
24229;SDS011;12362;50.004;8.006;2022-10-31T04:10:07;0.28;;;0.28;;
24229;SDS011;12362;50.004;8.006;2022-10-31T04:12:52;0.10;;;0.10;;
24229;SDS011;12362;50.004;8.006;2022-10-31T04:15:23;0.25;;;0.20;;
24229;SDS011;12362;50.004;8.006;2022-10-31T04:17:51;0.22;;;0.22;;
24229;SDS011;12362;50.004;8.006;2022-10-31T04:20:18;0.10;;;0.10;;
24229;SDS011;12362;50.004;8.006;2022-10-31T04:22:58;0.20;;;0.20;;
24229;SDS011;12362;50.004;8.006;2022-10-31T04:25:24;0.10;;;0.10;;
24229;SDS011;12362;50.004;8.006;2022-10-31T04:27:50;0.43;;;0.30;;
24229;SDS011;12362;50.004;8.006;2022-10-31T04:30:15;0.28;;;0.17;;
24229;SDS011;12362;50.004;8.006;2022-10-31T04:32:41;0.40;;;0.40;;
24229;SDS011;12362;50.004;8.006;2022-10-31T04:35:06;0.20;;;0.20;;
24229;SDS011;12362;50.004;8.006;2022-10-31T04:37:32;0.32;;;0.20;;
24229;SDS011;12362;50.004;8.006;2022-10-31T04:39:57;5.57;;;0.63;;
24229;SDS011;12362;50.004;8.006;2022-10-31T04:42:23;1.55;;;0.52;;
24229;SDS011;12362;50.004;8.006;2022-10-31T04:44:48;0.20;;;0.20;;
24229;SDS011;12362;50.004;8.006;2022-10-31T04:47:13;5.60;;;0.60;;
24229;SDS011;12362;50.004;8.006;2022-10-31T04:49:39;0.13;;;0.13;;
24229;SDS011;12362;50.004;8.006;2022-10-31T04:52:04;0.32;;;0.32;;
24229;SDS011;12362;50.004;8.006;2022-10-31T04:54:30;0.47;;;0.20;;
24229;SDS011;12362;50.004;8.006;2022-10-31T04:56:55;0.20;;;0.20;;
24229;SDS011;12362;50.004;8.006;2022-10-31T04:59:21;1.30;;;0.50;;
24229;SDS011;12362;50.004;8.006;2022-10-31T05:01:46;1.45;;;0.35;;
24229;SDS011;12362;50.004;8.006;2022-10-31T05:04:11;0.22;;;0.20;;
24229;SDS011;12362;50.004;8.006;2022-10-31T05:06:37;0.30;;;0.30;;
24229;SDS011;12362;50.004;8.006;2022-10-31T05:09:02;1.55;;;0.50;;
24229;SDS011;12362;50.004;8.006;2022-10-31T05:11:28;2.58;;;1.08;;
24229;SDS011;12362;50.004;8.006;2022-10-31T05:13:53;2.40;;;0.75;;
24229;SDS011;12362;50.004;8.006;2022-10-31T05:16:19;0.38;;;0.30;;
24229;SDS011;12362;50.004;8.006;2022-10-31T05:18:44;0.85;;;0.55;;
24229;SDS011;12362;50.004;8.006;2022-10-31T05:21:09;2.28;;;0.30;;
24229;SDS011;12362;50.004;8.006;2022-10-31T05:23:35;0.20;;;0.20;;
24229;SDS011;12362;50.004;8.006;2022-10-31T05:26:00;0.57;;;0.28;;
24229;SDS011;12362;50.004;8.006;2022-10-31T05:28:26;0.13;;;0.13;;
24229;SDS011;12362;50.004;8.006;2022-10-31T05:30:51;0.35;;;0.30;;
24229;SDS011;12362;50.004;8.006;2022-10-31T05:33:17;0.20;;;0.20;;
24229;SDS011;12362;50.004;8.006;2022-10-31T05:35:43;0.10;;;0.10;;
24229;SDS011;12362;50.004;8.006;2022-10-31T05:38:08;0.20;;;0.20;;
24229;SDS011;12362;50.004;8.006;2022-10-31T05:40:34;1.25;;;0.80;;
24229;SDS011;12362;50.004;8.006;2022-10-31T05:42:59;0.30;;;0.30;;
24229;SDS011;12362;50.004;8.006;2022-10-31T05:45:24;1.20;;;0.70;;
24229;SDS011;12362;50.004;8.006;2022-10-31T05:47:54;4.50;;;0.32;;
24229;SDS011;12362;50.004;8.006;2022-10-31T05:50:21;0.22;;;0.22;;
24229;SDS011;12362;50.004;8.006;2022-10-31T05:52:53;0.25;;;0.25;;
24229;SDS011;12362;50.004;8.006;2022-10-31T05:55:23;17.55;;;0.40;;
24229;SDS011;12362;50.004;8.006;2022-10-31T05:57:49;0.20;;;0.20;;
24229;SDS011;12362;50.004;8.006;2022-10-31T06:00:16;0.38;;;0.30;;
24229;SDS011;12362;50.004;8.006;2022-10-31T06:02:42;0.67;;;0.40;;
24229;SDS011;12362;50.004;8.006;2022-10-31T06:05:08;0.85;;;0.20;;
24229;SDS011;12362;50.004;8.006;2022-10-31T06:07:33;0.10;;;0.10;;
24229;SDS011;12362;50.004;8.006;2022-10-31T06:10:00;1.00;;;0.57;;
24229;SDS011;12362;50.004;8.006;2022-10-31T06:12:27;3.58;;;0.85;;
24229;SDS011;12362;50.004;8.006;2022-10-31T06:14:52;0.23;;;0.23;;
24229;SDS011;12362;50.004;8.006;2022-10-31T06:17:17;0.13;;;0.13;;
24229;SDS011;12362;50.004;8.006;2022-10-31T06:19:43;6.18;;;0.90;;
24229;SDS011;12362;50.004;8.006;2022-10-31T06:22:08;1.45;;;0.40;;
24229;SDS011;12362;50.004;8.006;2022-10-31T06:24:36;0.70;;;0.40;;
24229;SDS011;12362;50.004;8.006;2022-10-31T06:27:02;0.32;;;0.32;;
24229;SDS011;12362;50.004;8.006;2022-10-31T06:29:27;1.65;;;0.40;;
24229;SDS011;12362;50.004;8.006;2022-10-31T06:31:53;2.08;;;0.55;;
24229;SDS011;12362;50.004;8.006;2022-10-31T06:34:18;0.55;;;0.28;;
24229;SDS011;12362;50.004;8.006;2022-10-31T06:36:45;0.30;;;0.30;;
24229;SDS011;12362;50.004;8.006;2022-10-31T06:39:12;0.10;;;0.10;;
24229;SDS011;12362;50.004;8.006;2022-10-31T06:41:37;0.52;;;0.35;;
24229;SDS011;12362;50.004;8.006;2022-10-31T06:44:04;0.30;;;0.30;;
24229;SDS011;12362;50.004;8.006;2022-10-31T06:46:30;10.23;;;0.57;;
24229;SDS011;12362;50.004;8.006;2022-10-31T06:48:56;0.40;;;0.40;;
24229;SDS011;12362;50.004;8.006;2022-10-31T06:51:21;13.00;;;0.73;;
24229;SDS011;12362;50.004;8.006;2022-10-31T06:53:47;0.30;;;0.30;;
24229;SDS011;12362;50.004;8.006;2022-10-31T06:56:12;0.47;;;0.35;;
24229;SDS011;12362;50.004;8.006;2022-10-31T06:58:37;0.73;;;0.20;;
24229;SDS011;12362;50.004;8.006;2022-10-31T07:01:03;0.75;;;0.40;;
24229;SDS011;12362;50.004;8.006;2022-10-31T07:03:28;3.08;;;0.25;;
24229;SDS011;12362;50.004;8.006;2022-10-31T07:05:56;1.65;;;0.70;;
24229;SDS011;12362;50.004;8.006;2022-10-31T07:08:22;0.35;;;0.30;;
24229;SDS011;12362;50.004;8.006;2022-10-31T07:10:52;1.80;;;0.40;;
24229;SDS011;12362;50.004;8.006;2022-10-31T07:13:19;0.52;;;0.25;;
24229;SDS011;12362;50.004;8.006;2022-10-31T07:15:49;1.15;;;0.65;;
24229;SDS011;12362;50.004;8.006;2022-10-31T07:18:16;0.20;;;0.20;;
24229;SDS011;12362;50.004;8.006;2022-10-31T07:20:41;6.43;;;0.40;;
24229;SDS011;12362;50.004;8.006;2022-10-31T07:23:08;0.25;;;0.20;;
24229;SDS011;12362;50.004;8.006;2022-10-31T07:25:35;0.57;;;0.57;;
24229;SDS011;12362;50.004;8.006;2022-10-31T07:28:01;2.45;;;0.68;;
24229;SDS011;12362;50.004;8.006;2022-10-31T07:30:27;2.10;;;0.50;;
24229;SDS011;12362;50.004;8.006;2022-10-31T07:32:53;0.95;;;0.70;;
24229;SDS011;12362;50.004;8.006;2022-10-31T07:35:24;1.85;;;0.30;;
24229;SDS011;12362;50.004;8.006;2022-10-31T07:37:51;1.17;;;0.55;;
24229;SDS011;12362;50.004;8.006;2022-10-31T07:40:17;1.50;;;0.88;;
24229;SDS011;12362;50.004;8.006;2022-10-31T07:42:44;1.85;;;0.75;;
24229;SDS011;12362;50.004;8.006;2022-10-31T07:45:13;0.90;;;0.57;;
24229;SDS011;12362;50.004;8.006;2022-10-31T07:48:02;9.80;;;0.60;;
24229;SDS011;12362;50.004;8.006;2022-10-31T07:50:29;1.92;;;0.60;;
24229;SDS011;12362;50.004;8.006;2022-10-31T07:52:59;1.48;;;1.08;;
24229;SDS011;12362;50.004;8.006;2022-10-31T07:55:35;0.95;;;0.70;;
24229;SDS011;12362;50.004;8.006;2022-10-31T07:58:05;2.75;;;1.20;;
24229;SDS011;12362;50.004;8.006;2022-10-31T08:00:35;2.83;;;1.55;;
24229;SDS011;12362;50.004;8.006;2022-10-31T08:05:29;9.15;;;1.95;;
24229;SDS011;12362;50.004;8.006;2022-10-31T08:07:56;2.25;;;1.27;;
24229;SDS011;12362;50.004;8.006;2022-10-31T08:10:27;1.38;;;0.70;;
24229;SDS011;12362;50.004;8.006;2022-10-31T08:13:00;1.83;;;1.15;;
24229;SDS011;12362;50.004;8.006;2022-10-31T08:15:47;3.10;;;0.75;;
24229;SDS011;12362;50.004;8.006;2022-10-31T08:18:15;2.88;;;1.08;;
24229;SDS011;12362;50.004;8.006;2022-10-31T08:20:41;0.50;;;0.50;;
24229;SDS011;12362;50.004;8.006;2022-10-31T08:23:08;1.38;;;0.88;;
24229;SDS011;12362;50.004;8.006;2022-10-31T08:25:34;0.90;;;0.63;;
24229;SDS011;12362;50.004;8.006;2022-10-31T08:28:00;1.73;;;0.52;;
24229;SDS011;12362;50.004;8.006;2022-10-31T08:30:26;2.22;;;0.52;;
24229;SDS011;12362;50.004;8.006;2022-10-31T08:32:58;1.77;;;1.08;;
24229;SDS011;12362;50.004;8.006;2022-10-31T08:35:39;1.38;;;0.73;;
24229;SDS011;12362;50.004;8.006;2022-10-31T08:38:05;0.93;;;0.77;;
24229;SDS011;12362;50.004;8.006;2022-10-31T08:40:32;2.13;;;0.47;;
24229;SDS011;12362;50.004;8.006;2022-10-31T08:42:59;4.55;;;0.75;;
24229;SDS011;12362;50.004;8.006;2022-10-31T08:45:26;2.67;;;0.75;;
24229;SDS011;12362;50.004;8.006;2022-10-31T08:47:56;1.85;;;0.80;;
24229;SDS011;12362;50.004;8.006;2022-10-31T08:50:22;1.48;;;0.57;;
24229;SDS011;12362;50.004;8.006;2022-10-31T08:52:48;0.88;;;0.45;;
24229;SDS011;12362;50.004;8.006;2022-10-31T08:55:13;3.78;;;0.88;;
24229;SDS011;12362;50.004;8.006;2022-10-31T08:57:39;2.88;;;0.60;;
24229;SDS011;12362;50.004;8.006;2022-10-31T09:00:05;0.68;;;0.55;;
24229;SDS011;12362;50.004;8.006;2022-10-31T09:02:31;0.52;;;0.52;;
24229;SDS011;12362;50.004;8.006;2022-10-31T09:04:56;3.40;;;0.80;;
24229;SDS011;12362;50.004;8.006;2022-10-31T09:07:21;0.60;;;0.60;;
24229;SDS011;12362;50.004;8.006;2022-10-31T09:09:47;1.42;;;0.75;;
24229;SDS011;12362;50.004;8.006;2022-10-31T09:12:12;1.30;;;0.50;;
24229;SDS011;12362;50.004;8.006;2022-10-31T09:14:38;2.78;;;0.60;;
24229;SDS011;12362;50.004;8.006;2022-10-31T09:17:03;1.30;;;0.63;;
24229;SDS011;12362;50.004;8.006;2022-10-31T09:19:28;5.65;;;1.95;;
24229;SDS011;12362;50.004;8.006;2022-10-31T09:21:54;1.33;;;0.52;;
24229;SDS011;12362;50.004;8.006;2022-10-31T09:24:19;2.00;;;0.55;;
24229;SDS011;12362;50.004;8.006;2022-10-31T09:26:45;1.45;;;0.68;;
24229;SDS011;12362;50.004;8.006;2022-10-31T09:29:10;0.85;;;0.60;;
24229;SDS011;12362;50.004;8.006;2022-10-31T09:31:36;1.73;;;0.90;;
24229;SDS011;12362;50.004;8.006;2022-10-31T09:34:01;1.73;;;0.90;;
24229;SDS011;12362;50.004;8.006;2022-10-31T09:36:27;0.77;;;0.52;;
24229;SDS011;12362;50.004;8.006;2022-10-31T09:38:55;4.68;;;0.65;;
24229;SDS011;12362;50.004;8.006;2022-10-31T09:41:29;2.72;;;0.60;;
24229;SDS011;12362;50.004;8.006;2022-10-31T09:52:20;1.48;;;0.63;;
24229;SDS011;12362;50.004;8.006;2022-10-31T09:54:56;1.50;;;0.60;;
24229;SDS011;12362;50.004;8.006;2022-10-31T09:57:25;0.70;;;0.52;;
24229;SDS011;12362;50.004;8.006;2022-10-31T09:59:54;1.02;;;0.70;;
24229;SDS011;12362;50.004;8.006;2022-10-31T10:02:31;2.05;;;0.70;;
24229;SDS011;12362;50.004;8.006;2022-10-31T10:04:58;3.95;;;0.50;;
24229;SDS011;12362;50.004;8.006;2022-10-31T10:09:57;1.25;;;0.57;;
24229;SDS011;12362;50.004;8.006;2022-10-31T10:15:55;8.73;;;1.02;;
24229;SDS011;12362;50.004;8.006;2022-10-31T10:21:34;7.60;;;0.95;;
24229;SDS011;12362;50.004;8.006;2022-10-31T10:29:50;1.10;;;1.00;;
24229;SDS011;12362;50.004;8.006;2022-10-31T10:32:29;6.90;;;1.05;;
24229;SDS011;12362;50.004;8.006;2022-10-31T10:35:14;3.28;;;0.90;;
24229;SDS011;12362;50.004;8.006;2022-10-31T10:37:48;1.48;;;0.80;;
24229;SDS011;12362;50.004;8.006;2022-10-31T10:40:18;2.20;;;0.63;;
24229;SDS011;12362;50.004;8.006;2022-10-31T10:45:42;3.35;;;1.00;;
24229;SDS011;12362;50.004;8.006;2022-10-31T10:48:55;3.28;;;0.80;;
24229;SDS011;12362;50.004;8.006;2022-10-31T10:51:52;3.88;;;1.02;;
24229;SDS011;12362;50.004;8.006;2022-10-31T10:54:22;1.60;;;0.70;;
24229;SDS011;12362;50.004;8.006;2022-10-31T10:59:19;0.85;;;0.75;;
24229;SDS011;12362;50.004;8.006;2022-10-31T11:01:48;2.05;;;0.70;;
24229;SDS011;12362;50.004;8.006;2022-10-31T11:04:23;3.15;;;1.20;;
24229;SDS011;12362;50.004;8.006;2022-10-31T11:07:02;5.63;;;0.82;;
24229;SDS011;12362;50.004;8.006;2022-10-31T11:09:28;1.23;;;0.70;;
24229;SDS011;12362;50.004;8.006;2022-10-31T11:11:53;4.53;;;0.65;;
24229;SDS011;12362;50.004;8.006;2022-10-31T11:14:20;5.38;;;0.60;;
24229;SDS011;12362;50.004;8.006;2022-10-31T11:16:48;3.35;;;0.85;;
24229;SDS011;12362;50.004;8.006;2022-10-31T11:21:52;3.72;;;1.48;;
24229;SDS011;12362;50.004;8.006;2022-10-31T11:29:23;1.45;;;0.85;;
24229;SDS011;12362;50.004;8.006;2022-10-31T11:31:54;4.30;;;1.10;;
24229;SDS011;12362;50.004;8.006;2022-10-31T11:34:29;5.57;;;1.27;;
24229;SDS011;12362;50.004;8.006;2022-10-31T11:37:03;1.35;;;0.82;;
24229;SDS011;12362;50.004;8.006;2022-10-31T11:39:42;2.17;;;1.20;;
24229;SDS011;12362;50.004;8.006;2022-10-31T11:42:21;5.32;;;1.50;;
24229;SDS011;12362;50.004;8.006;2022-10-31T11:44:49;4.35;;;0.75;;
24229;SDS011;12362;50.004;8.006;2022-10-31T12:06:49;1.80;;;0.88;;
24229;SDS011;12362;50.004;8.006;2022-10-31T12:15:53;0.88;;;0.80;;
24229;SDS011;12362;50.004;8.006;2022-10-31T12:18:46;2.25;;;0.98;;
24229;SDS011;12362;50.004;8.006;2022-10-31T12:26:59;1.70;;;0.60;;
24229;SDS011;12362;50.004;8.006;2022-10-31T12:38:42;2.85;;;1.17;;
24229;SDS011;12362;50.004;8.006;2022-10-31T12:50:00;3.08;;;0.95;;
24229;SDS011;12362;50.004;8.006;2022-10-31T12:52:41;1.50;;;0.70;;
24229;SDS011;12362;50.004;8.006;2022-10-31T12:58:34;0.95;;;0.60;;
24229;SDS011;12362;50.004;8.006;2022-10-31T13:06:20;4.32;;;1.40;;
24229;SDS011;12362;50.004;8.006;2022-10-31T13:08:53;3.80;;;1.52;;
24229;SDS011;12362;50.004;8.006;2022-10-31T13:11:24;1.58;;;0.77;;
24229;SDS011;12362;50.004;8.006;2022-10-31T13:17:02;2.42;;;0.90;;
24229;SDS011;12362;50.004;8.006;2022-10-31T13:19:30;1.48;;;0.93;;
24229;SDS011;12362;50.004;8.006;2022-10-31T13:22:08;1.17;;;0.98;;
24229;SDS011;12362;50.004;8.006;2022-10-31T13:27:30;5.88;;;1.15;;
24229;SDS011;12362;50.004;8.006;2022-10-31T13:30:23;2.33;;;0.80;;
24229;SDS011;12362;50.004;8.006;2022-10-31T13:32:59;5.38;;;1.77;;
24229;SDS011;12362;50.004;8.006;2022-10-31T13:35:40;3.65;;;1.30;;
24229;SDS011;12362;50.004;8.006;2022-10-31T13:38:11;0.95;;;0.88;;
24229;SDS011;12362;50.004;8.006;2022-10-31T13:41:00;1.77;;;0.60;;
24229;SDS011;12362;50.004;8.006;2022-10-31T13:46:34;8.85;;;0.63;;
24229;SDS011;12362;50.004;8.006;2022-10-31T13:49:18;4.22;;;1.05;;
24229;SDS011;12362;50.004;8.006;2022-10-31T13:54:38;1.63;;;0.70;;
24229;SDS011;12362;50.004;8.006;2022-10-31T13:59:46;3.63;;;1.23;;
24229;SDS011;12362;50.004;8.006;2022-10-31T14:02:17;1.40;;;0.70;;
24229;SDS011;12362;50.004;8.006;2022-10-31T14:04:50;2.55;;;1.17;;
24229;SDS011;12362;50.004;8.006;2022-10-31T14:07:20;6.95;;;1.48;;
24229;SDS011;12362;50.004;8.006;2022-10-31T14:09:52;1.58;;;0.75;;
24229;SDS011;12362;50.004;8.006;2022-10-31T14:15:28;2.45;;;0.70;;
24229;SDS011;12362;50.004;8.006;2022-10-31T14:17:55;3.03;;;1.20;;
24229;SDS011;12362;50.004;8.006;2022-10-31T14:20:39;4.63;;;0.82;;
24229;SDS011;12362;50.004;8.006;2022-10-31T14:23:12;2.42;;;0.70;;
24229;SDS011;12362;50.004;8.006;2022-10-31T14:25:38;2.30;;;0.75;;
24229;SDS011;12362;50.004;8.006;2022-10-31T14:28:31;2.63;;;1.10;;
24229;SDS011;12362;50.004;8.006;2022-10-31T14:30:59;1.17;;;0.70;;
24229;SDS011;12362;50.004;8.006;2022-10-31T14:33:26;2.33;;;0.90;;
24229;SDS011;12362;50.004;8.006;2022-10-31T14:51:42;4.45;;;0.57;;
24229;SDS011;12362;50.004;8.006;2022-10-31T14:54:17;1.55;;;0.63;;
24229;SDS011;12362;50.004;8.006;2022-10-31T14:56:55;11.05;;;1.30;;
24229;SDS011;12362;50.004;8.006;2022-10-31T14:59:26;1.98;;;1.15;;
24229;SDS011;12362;50.004;8.006;2022-10-31T15:02:07;2.80;;;0.82;;
24229;SDS011;12362;50.004;8.006;2022-10-31T15:04:39;1.98;;;1.13;;
24229;SDS011;12362;50.004;8.006;2022-10-31T15:07:22;1.48;;;0.95;;
24229;SDS011;12362;50.004;8.006;2022-10-31T15:10:04;1.02;;;0.65;;
24229;SDS011;12362;50.004;8.006;2022-10-31T15:12:50;13.38;;;0.80;;
24229;SDS011;12362;50.004;8.006;2022-10-31T15:15:26;2.22;;;0.65;;
24229;SDS011;12362;50.004;8.006;2022-10-31T15:17:55;6.78;;;1.10;;
24229;SDS011;12362;50.004;8.006;2022-10-31T15:20:27;1.65;;;0.57;;
24229;SDS011;12362;50.004;8.006;2022-10-31T15:22:55;1.08;;;0.55;;
24229;SDS011;12362;50.004;8.006;2022-10-31T15:25:23;2.55;;;0.93;;
24229;SDS011;12362;50.004;8.006;2022-10-31T15:27:59;4.72;;;0.63;;
24229;SDS011;12362;50.004;8.006;2022-10-31T15:30:26;4.93;;;0.77;;
24229;SDS011;12362;50.004;8.006;2022-10-31T15:32:53;1.40;;;0.50;;
24229;SDS011;12362;50.004;8.006;2022-10-31T15:35:29;5.43;;;1.30;;
24229;SDS011;12362;50.004;8.006;2022-10-31T15:37:56;1.95;;;0.75;;
24229;SDS011;12362;50.004;8.006;2022-10-31T15:40:23;6.03;;;0.77;;
24229;SDS011;12362;50.004;8.006;2022-10-31T15:45:21;3.28;;;1.13;;
24229;SDS011;12362;50.004;8.006;2022-10-31T15:48:02;3.22;;;1.67;;
24229;SDS011;12362;50.004;8.006;2022-10-31T15:50:39;4.03;;;1.38;;
24229;SDS011;12362;50.004;8.006;2022-10-31T15:53:17;2.08;;;1.25;;
24229;SDS011;12362;50.004;8.006;2022-10-31T15:55:49;2.90;;;0.73;;
24229;SDS011;12362;50.004;8.006;2022-10-31T15:58:19;1.30;;;0.80;;
24229;SDS011;12362;50.004;8.006;2022-10-31T16:00:45;4.90;;;0.85;;
24229;SDS011;12362;50.004;8.006;2022-10-31T16:03:29;4.57;;;1.08;;
24229;SDS011;12362;50.004;8.006;2022-10-31T16:05:58;0.63;;;0.52;;
24229;SDS011;12362;50.004;8.006;2022-10-31T16:10:56;0.85;;;0.82;;
24229;SDS011;12362;50.004;8.006;2022-10-31T16:13:33;6.13;;;0.70;;
24229;SDS011;12362;50.004;8.006;2022-10-31T16:16:11;5.32;;;0.40;;
24229;SDS011;12362;50.004;8.006;2022-10-31T16:18:39;1.83;;;1.15;;
24229;SDS011;12362;50.004;8.006;2022-10-31T16:21:06;3.95;;;0.70;;
24229;SDS011;12362;50.004;8.006;2022-10-31T16:23:33;1.15;;;0.57;;
24229;SDS011;12362;50.004;8.006;2022-10-31T16:25:59;1.30;;;0.95;;
24229;SDS011;12362;50.004;8.006;2022-10-31T16:28:26;2.30;;;1.05;;
24229;SDS011;12362;50.004;8.006;2022-10-31T16:30:57;7.82;;;1.40;;
24229;SDS011;12362;50.004;8.006;2022-10-31T16:33:32;1.25;;;0.85;;
24229;SDS011;12362;50.004;8.006;2022-10-31T16:38:55;13.30;;;1.77;;
24229;SDS011;12362;50.004;8.006;2022-10-31T16:41:24;8.27;;;2.70;;
24229;SDS011;12362;50.004;8.006;2022-10-31T16:43:53;5.15;;;1.95;;
24229;SDS011;12362;50.004;8.006;2022-10-31T16:46:23;3.75;;;1.48;;
24229;SDS011;12362;50.004;8.006;2022-10-31T16:48:50;1.20;;;0.63;;
24229;SDS011;12362;50.004;8.006;2022-10-31T16:51:24;3.92;;;0.90;;
24229;SDS011;12362;50.004;8.006;2022-10-31T16:54:03;1.42;;;1.33;;
24229;SDS011;12362;50.004;8.006;2022-10-31T16:56:30;2.72;;;0.88;;
24229;SDS011;12362;50.004;8.006;2022-10-31T16:58:57;1.90;;;1.13;;
24229;SDS011;12362;50.004;8.006;2022-10-31T17:01:25;4.03;;;1.20;;
24229;SDS011;12362;50.004;8.006;2022-10-31T17:03:51;1.83;;;0.90;;
24229;SDS011;12362;50.004;8.006;2022-10-31T17:06:17;4.57;;;1.42;;
24229;SDS011;12362;50.004;8.006;2022-10-31T17:08:42;4.43;;;1.45;;
24229;SDS011;12362;50.004;8.006;2022-10-31T17:11:22;2.92;;;1.83;;
24229;SDS011;12362;50.004;8.006;2022-10-31T17:13:50;9.75;;;1.70;;
24229;SDS011;12362;50.004;8.006;2022-10-31T17:16:16;7.60;;;1.95;;
24229;SDS011;12362;50.004;8.006;2022-10-31T17:18:42;2.42;;;1.15;;
24229;SDS011;12362;50.004;8.006;2022-10-31T17:21:12;2.38;;;0.88;;
24229;SDS011;12362;50.004;8.006;2022-10-31T17:23:42;2.72;;;1.52;;
24229;SDS011;12362;50.004;8.006;2022-10-31T17:26:09;8.38;;;2.33;;
24229;SDS011;12362;50.004;8.006;2022-10-31T17:28:35;9.73;;;3.58;;
24229;SDS011;12362;50.004;8.006;2022-10-31T17:31:00;6.18;;;2.83;;
24229;SDS011;12362;50.004;8.006;2022-10-31T17:33:27;4.53;;;2.50;;
24229;SDS011;12362;50.004;8.006;2022-10-31T17:35:53;4.55;;;1.45;;
24229;SDS011;12362;50.004;8.006;2022-10-31T17:38:18;2.35;;;1.25;;
24229;SDS011;12362;50.004;8.006;2022-10-31T17:40:44;7.45;;;2.25;;
24229;SDS011;12362;50.004;8.006;2022-10-31T17:43:10;4.13;;;2.35;;
24229;SDS011;12362;50.004;8.006;2022-10-31T17:45:39;2.00;;;1.10;;
24229;SDS011;12362;50.004;8.006;2022-10-31T17:48:06;2.88;;;1.33;;
24229;SDS011;12362;50.004;8.006;2022-10-31T17:50:32;2.90;;;1.30;;
24229;SDS011;12362;50.004;8.006;2022-10-31T17:52:57;3.58;;;1.08;;
24229;SDS011;12362;50.004;8.006;2022-10-31T17:55:23;1.45;;;1.00;;
24229;SDS011;12362;50.004;8.006;2022-10-31T17:57:49;1.17;;;0.45;;
24229;SDS011;12362;50.004;8.006;2022-10-31T18:00:16;2.35;;;0.77;;
24229;SDS011;12362;50.004;8.006;2022-10-31T18:02:48;2.13;;;1.00;;
24229;SDS011;12362;50.004;8.006;2022-10-31T18:05:14;3.45;;;0.85;;